Bear Creek, North Carolina
Current Conditions -  °F | °C
As of 7:15 AM on Thursday 29 Jan 2015 (Local Time) from KTTA Reporting Station
Clear Clear  
Wind Chill: 21°   Ceiling: Unl
Heat Index: 21°   Visibility: 10mi
Dew Point: 21°   Wind: 0mph
Humidity: 100%   Direction: NA
Pressure: 30.37"   Gusts: NA
Location:  35.62°N, 79.38°W
Report Text: KTTA 291215Z AUTO 00000KT 10SM CLR M06/M06 A3037 RMK AO2 T10631063
Loading
Personal Weather Stations






























Interactive Weather Map New forecast layout! Learn more

10-Day Weather Forecast

Advertisements
Track Severe Weather on mobile